sensor_id;sensor_type;location;lat;lon;timestamp;P1;durP1;ratioP1;P2;durP2;ratioP2
13147;SDS011;6639;50.956;4.242;2023-03-31T00:01:49;10.07;;;3.08;;
13147;SDS011;6639;50.956;4.242;2023-03-31T00:04:18;10.98;;;2.83;;
13147;SDS011;6639;50.956;4.242;2023-03-31T00:06:47;4.80;;;2.50;;
13147;SDS011;6639;50.956;4.242;2023-03-31T00:09:18;11.90;;;3.50;;
13147;SDS011;6639;50.956;4.242;2023-03-31T00:11:46;11.48;;;3.70;;
13147;SDS011;6639;50.956;4.242;2023-03-31T00:14:13;11.50;;;2.88;;
13147;SDS011;6639;50.956;4.242;2023-03-31T00:16:43;15.63;;;3.90;;
13147;SDS011;6639;50.956;4.242;2023-03-31T00:19:11;14.77;;;3.95;;
13147;SDS011;6639;50.956;4.242;2023-03-31T00:21:44;12.30;;;3.38;;
13147;SDS011;6639;50.956;4.242;2023-03-31T00:24:12;9.85;;;3.50;;
13147;SDS011;6639;50.956;4.242;2023-03-31T00:26:40;10.30;;;3.00;;
13147;SDS011;6639;50.956;4.242;2023-03-31T00:29:07;11.02;;;3.03;;
13147;SDS011;6639;50.956;4.242;2023-03-31T00:31:36;12.68;;;3.08;;
13147;SDS011;6639;50.956;4.242;2023-03-31T00:34:05;17.52;;;3.50;;
13147;SDS011;6639;50.956;4.242;2023-03-31T00:36:32;9.68;;;3.03;;
13147;SDS011;6639;50.956;4.242;2023-03-31T00:39:00;11.70;;;2.88;;
13147;SDS011;6639;50.956;4.242;2023-03-31T00:41:31;11.63;;;2.72;;
13147;SDS011;6639;50.956;4.242;2023-03-31T00:43:59;10.05;;;3.10;;
13147;SDS011;6639;50.956;4.242;2023-03-31T00:46:31;8.05;;;2.38;;
13147;SDS011;6639;50.956;4.242;2023-03-31T00:49:00;7.15;;;2.88;;
13147;SDS011;6639;50.956;4.242;2023-03-31T00:51:30;7.28;;;2.65;;
13147;SDS011;6639;50.956;4.242;2023-03-31T00:54:00;7.60;;;2.53;;
13147;SDS011;6639;50.956;4.242;2023-03-31T00:56:31;7.20;;;2.42;;
13147;SDS011;6639;50.956;4.242;2023-03-31T00:59:02;10.50;;;2.65;;
13147;SDS011;6639;50.956;4.242;2023-03-31T01:01:32;7.30;;;2.50;;
13147;SDS011;6639;50.956;4.242;2023-03-31T01:04:00;8.52;;;2.10;;
13147;SDS011;6639;50.956;4.242;2023-03-31T01:06:30;13.10;;;2.65;;
13147;SDS011;6639;50.956;4.242;2023-03-31T01:08:58;12.48;;;2.80;;
13147;SDS011;6639;50.956;4.242;2023-03-31T01:11:31;9.82;;;2.70;;
13147;SDS011;6639;50.956;4.242;2023-03-31T01:14:00;13.88;;;3.13;;
13147;SDS011;6639;50.956;4.242;2023-03-31T01:16:28;11.48;;;3.25;;
13147;SDS011;6639;50.956;4.242;2023-03-31T01:18:55;6.72;;;3.25;;
13147;SDS011;6639;50.956;4.242;2023-03-31T01:24:46;15.07;;;3.20;;
13147;SDS011;6639;50.956;4.242;2023-03-31T01:27:46;11.68;;;2.90;;
13147;SDS011;6639;50.956;4.242;2023-03-31T01:30:41;14.68;;;3.72;;
13147;SDS011;6639;50.956;4.242;2023-03-31T01:36:35;10.02;;;3.03;;
13147;SDS011;6639;50.956;4.242;2023-03-31T01:42:36;7.07;;;2.47;;
13147;SDS011;6639;50.956;4.242;2023-03-31T01:45:09;9.13;;;2.42;;
13147;SDS011;6639;50.956;4.242;2023-03-31T01:47:45;12.02;;;3.88;;
13147;SDS011;6639;50.956;4.242;2023-03-31T01:50:20;11.07;;;4.65;;
13147;SDS011;6639;50.956;4.242;2023-03-31T01:52:55;12.02;;;4.30;;
13147;SDS011;6639;50.956;4.242;2023-03-31T01:55:29;12.82;;;4.45;;
13147;SDS011;6639;50.956;4.242;2023-03-31T01:58:04;7.63;;;3.42;;
13147;SDS011;6639;50.956;4.242;2023-03-31T02:00:37;7.10;;;3.17;;
13147;SDS011;6639;50.956;4.242;2023-03-31T02:03:08;7.65;;;2.95;;
13147;SDS011;6639;50.956;4.242;2023-03-31T02:05:42;10.80;;;2.88;;
13147;SDS011;6639;50.956;4.242;2023-03-31T02:08:13;8.98;;;2.78;;
13147;SDS011;6639;50.956;4.242;2023-03-31T02:10:45;7.80;;;3.00;;
13147;SDS011;6639;50.956;4.242;2023-03-31T02:13:15;8.27;;;2.13;;
13147;SDS011;6639;50.956;4.242;2023-03-31T02:15:45;6.85;;;2.45;;
13147;SDS011;6639;50.956;4.242;2023-03-31T02:18:17;9.05;;;2.22;;
13147;SDS011;6639;50.956;4.242;2023-03-31T02:20:47;6.05;;;2.40;;
13147;SDS011;6639;50.956;4.242;2023-03-31T02:23:17;6.88;;;1.95;;
13147;SDS011;6639;50.956;4.242;2023-03-31T02:25:48;11.25;;;2.35;;
13147;SDS011;6639;50.956;4.242;2023-03-31T02:28:19;7.22;;;2.10;;
13147;SDS011;6639;50.956;4.242;2023-03-31T02:30:49;6.95;;;2.20;;
13147;SDS011;6639;50.956;4.242;2023-03-31T02:33:23;5.65;;;1.85;;
13147;SDS011;6639;50.956;4.242;2023-03-31T02:35:50;6.70;;;2.05;;
13147;SDS011;6639;50.956;4.242;2023-03-31T02:38:17;12.85;;;2.85;;
13147;SDS011;6639;50.956;4.242;2023-03-31T02:40:45;9.70;;;2.03;;
13147;SDS011;6639;50.956;4.242;2023-03-31T02:43:11;8.20;;;2.40;;
13147;SDS011;6639;50.956;4.242;2023-03-31T02:45:41;9.65;;;2.83;;
13147;SDS011;6639;50.956;4.242;2023-03-31T02:48:10;7.25;;;1.95;;
13147;SDS011;6639;50.956;4.242;2023-03-31T02:53:54;6.93;;;2.67;;
13147;SDS011;6639;50.956;4.242;2023-03-31T02:56:37;5.93;;;2.33;;
13147;SDS011;6639;50.956;4.242;2023-03-31T02:59:27;8.15;;;2.63;;
13147;SDS011;6639;50.956;4.242;2023-03-31T03:02:09;4.72;;;2.15;;
13147;SDS011;6639;50.956;4.242;2023-03-31T03:04:55;8.60;;;2.47;;
13147;SDS011;6639;50.956;4.242;2023-03-31T03:07:40;7.30;;;1.95;;
13147;SDS011;6639;50.956;4.242;2023-03-31T03:10:13;7.72;;;2.08;;
13147;SDS011;6639;50.956;4.242;2023-03-31T03:12:47;7.03;;;2.13;;
13147;SDS011;6639;50.956;4.242;2023-03-31T03:15:21;9.98;;;2.67;;
13147;SDS011;6639;50.956;4.242;2023-03-31T03:17:52;9.10;;;2.53;;
13147;SDS011;6639;50.956;4.242;2023-03-31T03:20:21;8.45;;;2.22;;
13147;SDS011;6639;50.956;4.242;2023-03-31T03:22:48;10.13;;;2.03;;
13147;SDS011;6639;50.956;4.242;2023-03-31T03:25:15;8.50;;;2.80;;
13147;SDS011;6639;50.956;4.242;2023-03-31T03:27:44;9.93;;;2.28;;
13147;SDS011;6639;50.956;4.242;2023-03-31T03:30:12;7.03;;;2.38;;
13147;SDS011;6639;50.956;4.242;2023-03-31T03:32:39;8.40;;;3.33;;
13147;SDS011;6639;50.956;4.242;2023-03-31T03:35:08;7.65;;;2.75;;
13147;SDS011;6639;50.956;4.242;2023-03-31T03:37:36;5.68;;;1.95;;
13147;SDS011;6639;50.956;4.242;2023-03-31T03:40:03;3.83;;;1.75;;
13147;SDS011;6639;50.956;4.242;2023-03-31T03:42:31;4.57;;;1.98;;
13147;SDS011;6639;50.956;4.242;2023-03-31T03:44:59;4.45;;;1.55;;
13147;SDS011;6639;50.956;4.242;2023-03-31T03:47:26;3.78;;;1.45;;
13147;SDS011;6639;50.956;4.242;2023-03-31T03:49:54;4.55;;;1.40;;
13147;SDS011;6639;50.956;4.242;2023-03-31T03:52:22;3.58;;;1.10;;
13147;SDS011;6639;50.956;4.242;2023-03-31T03:54:49;4.13;;;1.60;;
13147;SDS011;6639;50.956;4.242;2023-03-31T03:57:16;4.78;;;1.40;;
13147;SDS011;6639;50.956;4.242;2023-03-31T03:59:43;3.47;;;1.50;;
13147;SDS011;6639;50.956;4.242;2023-03-31T04:02:10;3.03;;;1.20;;
13147;SDS011;6639;50.956;4.242;2023-03-31T04:04:37;3.78;;;1.33;;
13147;SDS011;6639;50.956;4.242;2023-03-31T04:07:04;4.90;;;1.70;;
13147;SDS011;6639;50.956;4.242;2023-03-31T04:09:32;4.80;;;1.75;;
13147;SDS011;6639;50.956;4.242;2023-03-31T04:11:59;3.20;;;1.23;;
13147;SDS011;6639;50.956;4.242;2023-03-31T04:14:26;3.30;;;1.27;;
13147;SDS011;6639;50.956;4.242;2023-03-31T04:16:53;2.70;;;1.48;;
13147;SDS011;6639;50.956;4.242;2023-03-31T04:19:22;2.72;;;1.17;;
13147;SDS011;6639;50.956;4.242;2023-03-31T04:21:50;2.72;;;1.00;;
13147;SDS011;6639;50.956;4.242;2023-03-31T04:24:22;1.92;;;0.90;;
13147;SDS011;6639;50.956;4.242;2023-03-31T04:26:58;1.13;;;0.82;;
13147;SDS011;6639;50.956;4.242;2023-03-31T04:29:26;2.03;;;0.60;;
13147;SDS011;6639;50.956;4.242;2023-03-31T04:31:57;1.08;;;0.70;;
13147;SDS011;6639;50.956;4.242;2023-03-31T04:34:25;2.28;;;0.70;;
13147;SDS011;6639;50.956;4.242;2023-03-31T04:36:59;1.58;;;0.70;;
13147;SDS011;6639;50.956;4.242;2023-03-31T04:39:27;1.83;;;0.73;;
13147;SDS011;6639;50.956;4.242;2023-03-31T04:41:55;2.45;;;0.70;;
13147;SDS011;6639;50.956;4.242;2023-03-31T04:44:24;2.33;;;0.98;;
13147;SDS011;6639;50.956;4.242;2023-03-31T04:46:52;3.88;;;1.00;;
13147;SDS011;6639;50.956;4.242;2023-03-31T04:49:19;3.15;;;1.25;;
13147;SDS011;6639;50.956;4.242;2023-03-31T04:51:46;3.78;;;1.58;;
13147;SDS011;6639;50.956;4.242;2023-03-31T04:54:13;5.85;;;2.20;;
13147;SDS011;6639;50.956;4.242;2023-03-31T04:56:40;5.93;;;2.30;;
13147;SDS011;6639;50.956;4.242;2023-03-31T04:59:08;6.10;;;2.50;;
13147;SDS011;6639;50.956;4.242;2023-03-31T05:01:35;8.27;;;3.58;;
13147;SDS011;6639;50.956;4.242;2023-03-31T05:04:03;9.20;;;3.35;;
13147;SDS011;6639;50.956;4.242;2023-03-31T05:06:30;8.05;;;4.10;;
13147;SDS011;6639;50.956;4.242;2023-03-31T05:08:57;9.77;;;4.38;;
13147;SDS011;6639;50.956;4.242;2023-03-31T05:11:24;12.05;;;4.60;;
13147;SDS011;6639;50.956;4.242;2023-03-31T05:13:51;9.07;;;4.15;;
13147;SDS011;6639;50.956;4.242;2023-03-31T05:16:19;13.50;;;4.68;;
13147;SDS011;6639;50.956;4.242;2023-03-31T05:18:46;10.27;;;4.28;;
13147;SDS011;6639;50.956;4.242;2023-03-31T05:21:14;12.27;;;4.22;;
13147;SDS011;6639;50.956;4.242;2023-03-31T05:23:42;8.73;;;3.55;;
13147;SDS011;6639;50.956;4.242;2023-03-31T05:26:10;12.63;;;4.45;;
13147;SDS011;6639;50.956;4.242;2023-03-31T05:28:37;9.40;;;3.60;;
13147;SDS011;6639;50.956;4.242;2023-03-31T05:31:05;10.10;;;3.72;;
13147;SDS011;6639;50.956;4.242;2023-03-31T05:33:34;9.00;;;2.90;;
13147;SDS011;6639;50.956;4.242;2023-03-31T05:36:04;11.13;;;3.60;;
13147;SDS011;6639;50.956;4.242;2023-03-31T05:38:32;10.48;;;3.35;;
13147;SDS011;6639;50.956;4.242;2023-03-31T05:40:59;12.02;;;4.32;;
13147;SDS011;6639;50.956;4.242;2023-03-31T05:43:26;10.45;;;3.45;;
13147;SDS011;6639;50.956;4.242;2023-03-31T05:45:53;10.88;;;3.75;;
13147;SDS011;6639;50.956;4.242;2023-03-31T05:48:20;15.25;;;3.20;;
13147;SDS011;6639;50.956;4.242;2023-03-31T05:50:48;10.75;;;3.10;;
13147;SDS011;6639;50.956;4.242;2023-03-31T05:53:15;9.32;;;2.88;;
13147;SDS011;6639;50.956;4.242;2023-03-31T05:55:42;12.60;;;3.08;;
13147;SDS011;6639;50.956;4.242;2023-03-31T05:58:09;8.75;;;3.03;;
13147;SDS011;6639;50.956;4.242;2023-03-31T06:00:36;7.20;;;3.03;;
13147;SDS011;6639;50.956;4.242;2023-03-31T06:03:03;8.27;;;2.85;;
13147;SDS011;6639;50.956;4.242;2023-03-31T06:05:32;10.48;;;2.72;;
13147;SDS011;6639;50.956;4.242;2023-03-31T06:08:01;8.82;;;2.97;;
13147;SDS011;6639;50.956;4.242;2023-03-31T06:10:28;9.68;;;2.90;;
13147;SDS011;6639;50.956;4.242;2023-03-31T06:12:55;7.25;;;2.85;;
13147;SDS011;6639;50.956;4.242;2023-03-31T06:15:22;14.57;;;3.13;;
13147;SDS011;6639;50.956;4.242;2023-03-31T06:17:49;15.38;;;3.95;;
13147;SDS011;6639;50.956;4.242;2023-03-31T06:20:16;10.05;;;3.20;;
13147;SDS011;6639;50.956;4.242;2023-03-31T06:22:43;13.43;;;2.92;;
13147;SDS011;6639;50.956;4.242;2023-03-31T06:25:11;11.00;;;3.28;;
13147;SDS011;6639;50.956;4.242;2023-03-31T06:27:38;9.60;;;3.13;;
13147;SDS011;6639;50.956;4.242;2023-03-31T06:30:06;11.50;;;3.13;;
13147;SDS011;6639;50.956;4.242;2023-03-31T06:32:33;15.35;;;3.47;;
13147;SDS011;6639;50.956;4.242;2023-03-31T06:35:00;13.77;;;4.15;;
13147;SDS011;6639;50.956;4.242;2023-03-31T06:37:27;9.75;;;3.42;;
13147;SDS011;6639;50.956;4.242;2023-03-31T06:39:54;7.00;;;3.38;;
13147;SDS011;6639;50.956;4.242;2023-03-31T06:42:22;7.53;;;2.65;;
13147;SDS011;6639;50.956;4.242;2023-03-31T06:44:49;11.60;;;3.70;;
13147;SDS011;6639;50.956;4.242;2023-03-31T06:47:16;11.10;;;3.13;;
13147;SDS011;6639;50.956;4.242;2023-03-31T06:49:43;13.18;;;3.50;;
13147;SDS011;6639;50.956;4.242;2023-03-31T06:52:10;11.75;;;2.90;;
13147;SDS011;6639;50.956;4.242;2023-03-31T06:54:37;11.30;;;3.50;;
13147;SDS011;6639;50.956;4.242;2023-03-31T06:57:04;14.25;;;3.63;;
13147;SDS011;6639;50.956;4.242;2023-03-31T06:59:32;11.10;;;3.13;;
13147;SDS011;6639;50.956;4.242;2023-03-31T07:01:59;10.18;;;2.90;;
13147;SDS011;6639;50.956;4.242;2023-03-31T07:04:26;13.60;;;3.55;;
13147;SDS011;6639;50.956;4.242;2023-03-31T07:06:53;10.70;;;4.32;;
13147;SDS011;6639;50.956;4.242;2023-03-31T07:09:20;11.10;;;3.50;;
13147;SDS011;6639;50.956;4.242;2023-03-31T07:11:48;9.88;;;3.22;;
13147;SDS011;6639;50.956;4.242;2023-03-31T07:14:15;10.13;;;3.55;;
13147;SDS011;6639;50.956;4.242;2023-03-31T07:16:44;16.88;;;3.88;;
13147;SDS011;6639;50.956;4.242;2023-03-31T07:19:10;18.15;;;4.57;;
13147;SDS011;6639;50.956;4.242;2023-03-31T07:21:39;15.32;;;3.72;;
13147;SDS011;6639;50.956;4.242;2023-03-31T07:24:06;14.68;;;3.88;;
13147;SDS011;6639;50.956;4.242;2023-03-31T07:26:33;10.13;;;3.10;;
13147;SDS011;6639;50.956;4.242;2023-03-31T07:29:00;14.95;;;3.78;;
13147;SDS011;6639;50.956;4.242;2023-03-31T07:31:27;12.60;;;3.33;;
13147;SDS011;6639;50.956;4.242;2023-03-31T07:33:55;15.65;;;3.70;;
13147;SDS011;6639;50.956;4.242;2023-03-31T07:36:22;8.70;;;3.00;;
13147;SDS011;6639;50.956;4.242;2023-03-31T07:38:49;14.65;;;4.05;;
13147;SDS011;6639;50.956;4.242;2023-03-31T07:41:17;18.35;;;4.63;;
13147;SDS011;6639;50.956;4.242;2023-03-31T07:43:46;14.57;;;4.13;;
13147;SDS011;6639;50.956;4.242;2023-03-31T07:46:14;13.50;;;3.53;;
13147;SDS011;6639;50.956;4.242;2023-03-31T07:48:42;16.40;;;4.55;;
13147;SDS011;6639;50.956;4.242;2023-03-31T07:51:12;8.48;;;3.55;;
13147;SDS011;6639;50.956;4.242;2023-03-31T07:53:39;9.82;;;3.70;;
13147;SDS011;6639;50.956;4.242;2023-03-31T07:56:06;11.20;;;4.15;;
13147;SDS011;6639;50.956;4.242;2023-03-31T07:58:33;11.27;;;3.40;;
13147;SDS011;6639;50.956;4.242;2023-03-31T08:01:00;15.55;;;3.00;;
13147;SDS011;6639;50.956;4.242;2023-03-31T08:03:27;14.80;;;3.78;;
13147;SDS011;6639;50.956;4.242;2023-03-31T08:05:56;13.15;;;3.90;;
13147;SDS011;6639;50.956;4.242;2023-03-31T08:08:24;12.02;;;4.20;;
13147;SDS011;6639;50.956;4.242;2023-03-31T08:10:51;17.17;;;4.38;;
13147;SDS011;6639;50.956;4.242;2023-03-31T08:13:18;11.38;;;3.88;;
13147;SDS011;6639;50.956;4.242;2023-03-31T08:15:46;14.23;;;3.83;;
13147;SDS011;6639;50.956;4.242;2023-03-31T08:18:12;15.13;;;4.40;;
13147;SDS011;6639;50.956;4.242;2023-03-31T08:20:39;9.43;;;2.92;;
13147;SDS011;6639;50.956;4.242;2023-03-31T08:23:06;14.30;;;4.07;;
13147;SDS011;6639;50.956;4.242;2023-03-31T08:25:37;11.05;;;3.30;;
13147;SDS011;6639;50.956;4.242;2023-03-31T08:28:04;14.65;;;4.35;;
13147;SDS011;6639;50.956;4.242;2023-03-31T08:30:31;9.25;;;2.90;;
13147;SDS011;6639;50.956;4.242;2023-03-31T08:32:58;15.85;;;3.78;;
13147;SDS011;6639;50.956;4.242;2023-03-31T08:35:26;11.93;;;3.45;;
13147;SDS011;6639;50.956;4.242;2023-03-31T08:37:53;12.82;;;3.30;;
13147;SDS011;6639;50.956;4.242;2023-03-31T08:40:21;15.98;;;3.83;;
13147;SDS011;6639;50.956;4.242;2023-03-31T08:42:52;11.30;;;3.53;;
13147;SDS011;6639;50.956;4.242;2023-03-31T08:45:22;7.47;;;2.97;;
13147;SDS011;6639;50.956;4.242;2023-03-31T08:47:53;8.20;;;2.88;;
13147;SDS011;6639;50.956;4.242;2023-03-31T08:50:24;8.95;;;3.15;;
13147;SDS011;6639;50.956;4.242;2023-03-31T08:52:55;13.60;;;3.60;;
13147;SDS011;6639;50.956;4.242;2023-03-31T08:55:38;12.02;;;3.47;;
13147;SDS011;6639;50.956;4.242;2023-03-31T08:58:14;13.13;;;4.13;;
13147;SDS011;6639;50.956;4.242;2023-03-31T09:00:54;7.45;;;3.17;;
13147;SDS011;6639;50.956;4.242;2023-03-31T09:03:27;11.73;;;3.25;;
13147;SDS011;6639;50.956;4.242;2023-03-31T09:06:03;10.25;;;3.50;;
13147;SDS011;6639;50.956;4.242;2023-03-31T09:08:34;13.40;;;3.45;;
13147;SDS011;6639;50.956;4.242;2023-03-31T09:11:05;12.15;;;4.20;;
13147;SDS011;6639;50.956;4.242;2023-03-31T09:13:46;15.32;;;4.35;;
13147;SDS011;6639;50.956;4.242;2023-03-31T09:16:35;16.67;;;4.05;;
13147;SDS011;6639;50.956;4.242;2023-03-31T09:19:10;12.43;;;3.00;;
13147;SDS011;6639;50.956;4.242;2023-03-31T09:21:42;11.20;;;3.85;;
13147;SDS011;6639;50.956;4.242;2023-03-31T09:24:14;15.90;;;3.67;;
13147;SDS011;6639;50.956;4.242;2023-03-31T09:26:45;13.95;;;4.20;;
13147;SDS011;6639;50.956;4.242;2023-03-31T09:29:17;14.55;;;4.57;;
13147;SDS011;6639;50.956;4.242;2023-03-31T09:31:48;17.90;;;4.60;;
13147;SDS011;6639;50.956;4.242;2023-03-31T09:34:16;11.63;;;3.88;;
13147;SDS011;6639;50.956;4.242;2023-03-31T09:36:49;14.82;;;4.55;;
13147;SDS011;6639;50.956;4.242;2023-03-31T09:39:16;22.25;;;4.72;;
13147;SDS011;6639;50.956;4.242;2023-03-31T09:41:44;16.13;;;4.35;;
13147;SDS011;6639;50.956;4.242;2023-03-31T09:44:23;18.42;;;5.55;;
13147;SDS011;6639;50.956;4.242;2023-03-31T09:46:53;12.55;;;4.03;;
13147;SDS011;6639;50.956;4.242;2023-03-31T09:49:21;15.90;;;4.95;;
13147;SDS011;6639;50.956;4.242;2023-03-31T09:51:56;15.10;;;5.00;;
13147;SDS011;6639;50.956;4.242;2023-03-31T09:54:33;15.13;;;4.80;;
13147;SDS011;6639;50.956;4.242;2023-03-31T09:57:02;15.25;;;4.45;;
13147;SDS011;6639;50.956;4.242;2023-03-31T09:59:40;21.95;;;5.97;;
13147;SDS011;6639;50.956;4.242;2023-03-31T10:02:21;14.45;;;3.97;;
13147;SDS011;6639;50.956;4.242;2023-03-31T10:04:57;25.33;;;5.63;;
13147;SDS011;6639;50.956;4.242;2023-03-31T10:07:25;17.75;;;4.55;;
13147;SDS011;6639;50.956;4.242;2023-03-31T10:09:52;20.20;;;4.63;;
13147;SDS011;6639;50.956;4.242;2023-03-31T10:12:21;18.85;;;4.85;;
13147;SDS011;6639;50.956;4.242;2023-03-31T10:14:52;13.25;;;4.22;;
13147;SDS011;6639;50.956;4.242;2023-03-31T10:17:27;21.65;;;5.13;;
13147;SDS011;6639;50.956;4.242;2023-03-31T10:19:55;11.77;;;4.15;;
13147;SDS011;6639;50.956;4.242;2023-03-31T10:22:26;16.98;;;4.35;;
13147;SDS011;6639;50.956;4.242;2023-03-31T10:25:06;20.98;;;5.45;;
13147;SDS011;6639;50.956;4.242;2023-03-31T10:27:39;13.52;;;4.00;;
13147;SDS011;6639;50.956;4.242;2023-03-31T10:30:10;13.02;;;4.03;;
13147;SDS011;6639;50.956;4.242;2023-03-31T10:32:42;10.63;;;3.65;;
13147;SDS011;6639;50.956;4.242;2023-03-31T10:35:13;20.30;;;4.70;;
13147;SDS011;6639;50.956;4.242;2023-03-31T10:37:47;17.52;;;4.70;;
13147;SDS011;6639;50.956;4.242;2023-03-31T10:40:18;20.30;;;5.05;;
13147;SDS011;6639;50.956;4.242;2023-03-31T10:42:48;16.13;;;4.43;;
13147;SDS011;6639;50.956;4.242;2023-03-31T10:45:26;15.55;;;3.70;;
13147;SDS011;6639;50.956;4.242;2023-03-31T10:47:55;10.48;;;4.00;;
13147;SDS011;6639;50.956;4.242;2023-03-31T10:50:27;12.85;;;3.63;;
13147;SDS011;6639;50.956;4.242;2023-03-31T10:53:00;17.80;;;4.45;;
13147;SDS011;6639;50.956;4.242;2023-03-31T10:55:31;17.17;;;4.70;;
13147;SDS011;6639;50.956;4.242;2023-03-31T10:58:04;12.73;;;3.45;;
13147;SDS011;6639;50.956;4.242;2023-03-31T11:00:43;14.27;;;3.80;;
13147;SDS011;6639;50.956;4.242;2023-03-31T11:03:31;10.23;;;3.75;;
13147;SDS011;6639;50.956;4.242;2023-03-31T11:06:10;10.18;;;3.78;;
13147;SDS011;6639;50.956;4.242;2023-03-31T11:08:45;15.98;;;3.88;;
13147;SDS011;6639;50.956;4.242;2023-03-31T11:11:21;7.85;;;2.47;;
13147;SDS011;6639;50.956;4.242;2023-03-31T11:13:58;9.32;;;3.08;;
13147;SDS011;6639;50.956;4.242;2023-03-31T11:16:35;10.75;;;3.53;;
13147;SDS011;6639;50.956;4.242;2023-03-31T11:19:19;9.93;;;3.40;;
13147;SDS011;6639;50.956;4.242;2023-03-31T11:21:57;8.20;;;2.78;;
13147;SDS011;6639;50.956;4.242;2023-03-31T11:24:35;11.80;;;3.17;;
13147;SDS011;6639;50.956;4.242;2023-03-31T11:27:27;12.18;;;3.70;;
13147;SDS011;6639;50.956;4.242;2023-03-31T11:30:03;10.75;;;3.00;;
13147;SDS011;6639;50.956;4.242;2023-03-31T11:32:47;7.85;;;2.40;;
13147;SDS011;6639;50.956;4.242;2023-03-31T11:35:32;10.85;;;2.70;;
13147;SDS011;6639;50.956;4.242;2023-03-31T11:38:15;8.65;;;2.80;;
13147;SDS011;6639;50.956;4.242;2023-03-31T11:40:56;7.40;;;2.17;;
13147;SDS011;6639;50.956;4.242;2023-03-31T11:43:28;9.88;;;2.85;;
13147;SDS011;6639;50.956;4.242;2023-03-31T11:45:59;9.90;;;2.63;;
13147;SDS011;6639;50.956;4.242;2023-03-31T11:48:34;9.10;;;2.72;;
13147;SDS011;6639;50.956;4.242;2023-03-31T11:51:06;9.80;;;2.92;;
13147;SDS011;6639;50.956;4.242;2023-03-31T11:53:39;12.85;;;3.03;;
13147;SDS011;6639;50.956;4.242;2023-03-31T11:56:08;9.95;;;2.55;;
13147;SDS011;6639;50.956;4.242;2023-03-31T11:58:38;9.02;;;2.28;;
13147;SDS011;6639;50.956;4.242;2023-03-31T12:01:12;7.95;;;2.63;;
13147;SDS011;6639;50.956;4.242;2023-03-31T12:03:46;9.68;;;2.58;;
13147;SDS011;6639;50.956;4.242;2023-03-31T12:06:19;10.25;;;2.65;;
13147;SDS011;6639;50.956;4.242;2023-03-31T12:09:00;9.40;;;3.25;;
13147;SDS011;6639;50.956;4.242;2023-03-31T12:11:33;5.03;;;2.00;;
13147;SDS011;6639;50.956;4.242;2023-03-31T12:14:09;6.10;;;2.08;;
13147;SDS011;6639;50.956;4.242;2023-03-31T12:16:46;8.13;;;2.47;;
13147;SDS011;6639;50.956;4.242;2023-03-31T12:19:19;8.20;;;2.38;;
13147;SDS011;6639;50.956;4.242;2023-03-31T12:21:53;6.22;;;2.13;;
13147;SDS011;6639;50.956;4.242;2023-03-31T12:24:23;7.68;;;1.95;;
13147;SDS011;6639;50.956;4.242;2023-03-31T12:26:53;7.28;;;2.20;;
13147;SDS011;6639;50.956;4.242;2023-03-31T12:29:28;5.50;;;2.08;;
13147;SDS011;6639;50.956;4.242;2023-03-31T12:32:00;5.53;;;1.63;;
13147;SDS011;6639;50.956;4.242;2023-03-31T12:34:32;11.40;;;3.00;;
13147;SDS011;6639;50.956;4.242;2023-03-31T12:37:13;7.97;;;2.58;;
13147;SDS011;6639;50.956;4.242;2023-03-31T12:39:55;4.57;;;2.28;;
13147;SDS011;6639;50.956;4.242;2023-03-31T12:42:38;6.07;;;2.45;;
13147;SDS011;6639;50.956;4.242;2023-03-31T12:45:15;6.80;;;1.90;;
13147;SDS011;6639;50.956;4.242;2023-03-31T12:50:54;7.50;;;2.35;;
13147;SDS011;6639;50.956;4.242;2023-03-31T12:53:31;7.80;;;2.60;;
13147;SDS011;6639;50.956;4.242;2023-03-31T12:56:02;6.18;;;1.85;;
13147;SDS011;6639;50.956;4.242;2023-03-31T12:58:43;5.32;;;1.58;;
13147;SDS011;6639;50.956;4.242;2023-03-31T13:01:12;3.20;;;1.48;;
13147;SDS011;6639;50.956;4.242;2023-03-31T13:03:42;5.35;;;1.30;;
13147;SDS011;6639;50.956;4.242;2023-03-31T13:12:14;3.08;;;1.58;;
13147;SDS011;6639;50.956;4.242;2023-03-31T13:14:43;5.97;;;1.48;;
13147;SDS011;6639;50.956;4.242;2023-03-31T13:17:17;3.83;;;1.50;;
13147;SDS011;6639;50.956;4.242;2023-03-31T13:19:47;4.00;;;1.30;;
13147;SDS011;6639;50.956;4.242;2023-03-31T13:22:32;3.60;;;0.85;;
13147;SDS011;6639;50.956;4.242;2023-03-31T13:28:13;7.95;;;1.42;;
13147;SDS011;6639;50.956;4.242;2023-03-31T13:30:45;1.77;;;1.02;;
13147;SDS011;6639;50.956;4.242;2023-03-31T13:33:14;2.67;;;1.10;;
13147;SDS011;6639;50.956;4.242;2023-03-31T13:35:55;1.00;;;0.80;;
13147;SDS011;6639;50.956;4.242;2023-03-31T13:38:35;1.63;;;1.00;;
13147;SDS011;6639;50.956;4.242;2023-03-31T13:41:15;2.35;;;1.05;;
13147;SDS011;6639;50.956;4.242;2023-03-31T13:44:12;1.90;;;0.90;;
13147;SDS011;6639;50.956;4.242;2023-03-31T13:49:54;2.20;;;0.93;;
13147;SDS011;6639;50.956;4.242;2023-03-31T13:52:43;1.35;;;0.65;;
13147;SDS011;6639;50.956;4.242;2023-03-31T13:55:27;2.15;;;0.80;;
13147;SDS011;6639;50.956;4.242;2023-03-31T13:58:19;1.40;;;0.40;;
13147;SDS011;6639;50.956;4.242;2023-03-31T14:01:01;1.55;;;0.75;;
13147;SDS011;6639;50.956;4.242;2023-03-31T14:03:54;2.03;;;0.50;;
13147;SDS011;6639;50.956;4.242;2023-03-31T14:06:29;3.20;;;0.70;;
13147;SDS011;6639;50.956;4.242;2023-03-31T14:09:03;1.38;;;0.55;;
13147;SDS011;6639;50.956;4.242;2023-03-31T14:11:34;1.90;;;0.63;;
13147;SDS011;6639;50.956;4.242;2023-03-31T14:14:02;1.23;;;0.50;;
13147;SDS011;6639;50.956;4.242;2023-03-31T14:16:32;0.98;;;0.70;;
13147;SDS011;6639;50.956;4.242;2023-03-31T14:19:06;0.77;;;0.55;;
13147;SDS011;6639;50.956;4.242;2023-03-31T14:21:55;1.77;;;0.50;;
13147;SDS011;6639;50.956;4.242;2023-03-31T14:24:30;1.30;;;0.55;;
13147;SDS011;6639;50.956;4.242;2023-03-31T14:27:07;2.22;;;0.73;;
13147;SDS011;6639;50.956;4.242;2023-03-31T14:29:44;0.75;;;0.75;;
13147;SDS011;6639;50.956;4.242;2023-03-31T14:32:19;1.05;;;0.90;;
13147;SDS011;6639;50.956;4.242;2023-03-31T14:34:59;0.82;;;0.55;;
13147;SDS011;6639;50.956;4.242;2023-03-31T14:37:39;1.98;;;0.75;;
13147;SDS011;6639;50.956;4.242;2023-03-31T14:40:08;0.90;;;0.73;;
13147;SDS011;6639;50.956;4.242;2023-03-31T14:42:42;1.40;;;0.73;;
13147;SDS011;6639;50.956;4.242;2023-03-31T14:45:15;1.60;;;0.73;;
13147;SDS011;6639;50.956;4.242;2023-03-31T14:47:54;1.00;;;0.85;;
13147;SDS011;6639;50.956;4.242;2023-03-31T14:50:26;0.60;;;0.60;;
13147;SDS011;6639;50.956;4.242;2023-03-31T14:52:55;1.70;;;0.80;;
13147;SDS011;6639;50.956;4.242;2023-03-31T14:55:22;3.63;;;0.70;;
13147;SDS011;6639;50.956;4.242;2023-03-31T14:57:53;2.03;;;0.70;;
13147;SDS011;6639;50.956;4.242;2023-03-31T15:00:23;0.60;;;0.60;;
13147;SDS011;6639;50.956;4.242;2023-03-31T15:02:53;1.58;;;0.50;;
13147;SDS011;6639;50.956;4.242;2023-03-31T15:05:24;2.70;;;1.05;;
13147;SDS011;6639;50.956;4.242;2023-03-31T15:07:55;1.63;;;0.65;;
13147;SDS011;6639;50.956;4.242;2023-03-31T15:10:23;0.82;;;0.55;;
13147;SDS011;6639;50.956;4.242;2023-03-31T15:12:57;2.70;;;0.98;;
13147;SDS011;6639;50.956;4.242;2023-03-31T15:15:25;1.50;;;0.80;;
13147;SDS011;6639;50.956;4.242;2023-03-31T15:17:52;3.90;;;1.15;;
13147;SDS011;6639;50.956;4.242;2023-03-31T15:20:24;3.42;;;0.80;;
13147;SDS011;6639;50.956;4.242;2023-03-31T15:22:54;2.65;;;1.30;;
13147;SDS011;6639;50.956;4.242;2023-03-31T15:25:21;5.82;;;1.80;;
13147;SDS011;6639;50.956;4.242;2023-03-31T15:27:52;2.17;;;1.42;;
13147;SDS011;6639;50.956;4.242;2023-03-31T15:30:22;3.40;;;1.70;;
13147;SDS011;6639;50.956;4.242;2023-03-31T15:32:50;3.53;;;1.17;;
13147;SDS011;6639;50.956;4.242;2023-03-31T15:35:19;4.72;;;1.95;;
13147;SDS011;6639;50.956;4.242;2023-03-31T15:37:48;2.83;;;1.70;;
13147;SDS011;6639;50.956;4.242;2023-03-31T15:40:17;4.60;;;1.55;;
13147;SDS011;6639;50.956;4.242;2023-03-31T15:43:12;3.72;;;1.50;;
13147;SDS011;6639;50.956;4.242;2023-03-31T15:45:49;3.97;;;1.27;;
13147;SDS011;6639;50.956;4.242;2023-03-31T15:48:21;3.75;;;1.48;;
13147;SDS011;6639;50.956;4.242;2023-03-31T15:50:53;3.83;;;1.27;;